Orsola Bottiglieri — ICQN — position and weather

sailwx.info

Track history (hours):
 
Tides and Currents Weather Stations Pressure Air Temp Water Temp Dewpoint Dewpoint Depression Visibility Wind Speed Wind Dir Waves Ship Positions

Orsola Bottiglieri

Last reported at 2017-Apr-06 00:25 UTC. Time now 2017-Apr-30 03:14 UTC.
Position N 01°19' E 103°20'.
Warning: this ship's position is 24 days out of date.

Length 292 m; draft 10.3 m.

Type: Cargo ship. MMSI: 247304400.

Date/timePositionNaut miles runAvg speedWind from/ knotsBaromVisibWave heightAir tempDewpointWater temp
2017-Apr-06 00:25N 01°19' E 103°20'4 9.5
2017-Apr-06 00:00N 01°16' E 103°23'5 9.2
2017-Apr-05 23:30N 01°14' E 103°27'5 9.2
2017-Apr-05 23:00N 01°13' E 103°31'5 9.5
2017-Apr-05 22:30N 01°12' E 103°36'5 9.6
2017-Apr-05 22:00N 01°10' E 103°40'5 9.1
2017-Apr-05 21:30N 01°09' E 103°45'510.4
2017-Apr-05 20:59N 01°11' E 103°49'510.6
2017-Apr-05 20:30N 01°13' E 103°54'4 7.2
2017-Apr-05 19:59N 01°16' E 103°57'0 0.1
2017-Apr-05 16:59N 01°16' E 103°57'0 0.0
2017-Apr-05 09:44N 01°16' E 103°57'0 0.0
2017-Apr-05 03:53N 01°16' E 103°57'0 0.0
2017-Apr-05 02:50N 01°16' E 103°57'0 0.0
2017-Apr-05 01:35N 01°16' E 103°57'0 0.0
2017-Apr-05 01:08N 01°16' E 103°57'0 0.0
2017-Apr-05 00:14N 01°16' E 103°57'0 0.0
2017-Apr-04 23:56N 01°16' E 103°57'0 0.1
2017-Apr-04 23:30N 01°16' E 103°57'2 3.3
2017-Apr-04 23:00N 01°16' E 103°58'3 5.8
2017-Apr-04 22:30N 01°16' E 104°01'4 7.8
2017-Apr-04 22:00N 01°17' E 104°05'  
Track history (hours):
 
Tides and Currents Weather Stations Pressure Air Temp Water Temp Dewpoint Dewpoint Depression Visibility Wind Speed Wind Dir Waves Ship Positions

Orsola Bottiglieri

Last reported at 2017-Apr-06 00:25 UTC. Time now 2017-Apr-30 03:14 UTC.
Position N 01°19' E 103°20'.
Warning: this ship's position is 24 days out of date.

Length 292 m; draft 10.3 m.

Type: Cargo ship. MMSI: 247304400.

Date/timePositionNaut miles runAvg speedWind from/ knotsBaromVisibWave heightAir tempDewpointWater temp
2017-Apr-06 00:25N 01°19' E 103°20'4 9.5
2017-Apr-06 00:00N 01°16' E 103°23'5 9.2
2017-Apr-05 23:30N 01°14' E 103°27'5 9.2
2017-Apr-05 23:00N 01°13' E 103°31'5 9.5
2017-Apr-05 22:30N 01°12' E 103°36'5 9.6
2017-Apr-05 22:00N 01°10' E 103°40'5 9.1
2017-Apr-05 21:30N 01°09' E 103°45'510.4
2017-Apr-05 20:59N 01°11' E 103°49'510.6
2017-Apr-05 20:30N 01°13' E 103°54'4 7.2
2017-Apr-05 19:59N 01°16' E 103°57'0 0.1
2017-Apr-05 16:59N 01°16' E 103°57'0 0.0
2017-Apr-05 09:44N 01°16' E 103°57'0 0.0
2017-Apr-05 03:53N 01°16' E 103°57'0 0.0
2017-Apr-05 02:50N 01°16' E 103°57'0 0.0
2017-Apr-05 01:35N 01°16' E 103°57'0 0.0
2017-Apr-05 01:08N 01°16' E 103°57'0 0.0
2017-Apr-05 00:14N 01°16' E 103°57'0 0.0
2017-Apr-04 23:56N 01°16' E 103°57'0 0.1
2017-Apr-04 23:30N 01°16' E 103°57'2 3.3
2017-Apr-04 23:00N 01°16' E 103°58'3 5.8
2017-Apr-04 22:30N 01°16' E 104°01'4 7.8
2017-Apr-04 22:00N 01°17' E 104°05'  

Dump ship's entire track history